sensor_id;sensor_type;location;lat;lon;timestamp;temperature;humidity
26099;DHT22;13860;52.370;6.764;2023-02-28T00:00:44;3.20;71.00
26099;DHT22;13860;52.370;6.764;2023-02-28T00:03:50;3.20;71.00
26099;DHT22;13860;52.370;6.764;2023-02-28T00:06:54;3.30;71.10
26099;DHT22;13860;52.370;6.764;2023-02-28T00:10:00;3.30;71.10
26099;DHT22;13860;52.370;6.764;2023-02-28T00:13:07;3.30;71.10
26099;DHT22;13860;52.370;6.764;2023-02-28T00:16:15;3.30;71.20
26099;DHT22;13860;52.370;6.764;2023-02-28T00:19:19;3.40;71.30
26099;DHT22;13860;52.370;6.764;2023-02-28T00:22:25;3.40;71.20
26099;DHT22;13860;52.370;6.764;2023-02-28T00:25:29;3.40;71.30
26099;DHT22;13860;52.370;6.764;2023-02-28T00:28:37;3.40;71.20
26099;DHT22;13860;52.370;6.764;2023-02-28T00:31:41;3.40;71.30
26099;DHT22;13860;52.370;6.764;2023-02-28T00:34:48;3.50;71.40
26099;DHT22;13860;52.370;6.764;2023-02-28T00:37:52;3.50;71.30
26099;DHT22;13860;52.370;6.764;2023-02-28T00:40:58;3.50;71.30
26099;DHT22;13860;52.370;6.764;2023-02-28T00:44:07;3.50;71.40
26099;DHT22;13860;52.370;6.764;2023-02-28T00:47:13;3.50;71.40
26099;DHT22;13860;52.370;6.764;2023-02-28T00:50:18;3.50;71.40
26099;DHT22;13860;52.370;6.764;2023-02-28T00:53:25;3.60;71.40
26099;DHT22;13860;52.370;6.764;2023-02-28T00:56:29;3.60;71.50
26099;DHT22;13860;52.370;6.764;2023-02-28T00:59:36;3.60;71.40
26099;DHT22;13860;52.370;6.764;2023-02-28T01:02:41;3.60;71.50
26099;DHT22;13860;52.370;6.764;2023-02-28T01:05:47;3.60;71.40
26099;DHT22;13860;52.370;6.764;2023-02-28T01:08:51;3.70;71.50
26099;DHT22;13860;52.370;6.764;2023-02-28T01:11:57;3.60;71.40
26099;DHT22;13860;52.370;6.764;2023-02-28T01:15:04;3.70;71.50
26099;DHT22;13860;52.370;6.764;2023-02-28T01:18:10;3.70;71.60
26099;DHT22;13860;52.370;6.764;2023-02-28T01:21:16;3.70;71.50
26099;DHT22;13860;52.370;6.764;2023-02-28T01:24:22;3.70;71.60
26099;DHT22;13860;52.370;6.764;2023-02-28T01:27:26;3.70;71.60
26099;DHT22;13860;52.370;6.764;2023-02-28T01:30:35;3.70;71.60
26099;DHT22;13860;52.370;6.764;2023-02-28T01:33:39;3.70;71.60
26099;DHT22;13860;52.370;6.764;2023-02-28T01:36:45;3.70;71.60
26099;DHT22;13860;52.370;6.764;2023-02-28T01:39:49;3.70;71.60
26099;DHT22;13860;52.370;6.764;2023-02-28T01:42:57;3.70;71.60
26099;DHT22;13860;52.370;6.764;2023-02-28T01:46:03;3.80;71.60
26099;DHT22;13860;52.370;6.764;2023-02-28T01:49:12;3.80;71.70
26099;DHT22;13860;52.370;6.764;2023-02-28T01:52:16;3.80;71.70
26099;DHT22;13860;52.370;6.764;2023-02-28T01:55:24;3.80;72.30
26099;DHT22;13860;52.370;6.764;2023-02-28T01:58:33;3.80;71.70
26099;DHT22;13860;52.370;6.764;2023-02-28T02:01:42;3.80;71.70
26099;DHT22;13860;52.370;6.764;2023-02-28T02:04:51;3.80;71.70
26099;DHT22;13860;52.370;6.764;2023-02-28T02:08:03;3.90;71.70
26099;DHT22;13860;52.370;6.764;2023-02-28T02:11:09;3.90;71.80
26099;DHT22;13860;52.370;6.764;2023-02-28T02:14:40;3.90;71.70
26099;DHT22;13860;52.370;6.764;2023-02-28T02:17:52;3.90;71.80
26099;DHT22;13860;52.370;6.764;2023-02-28T02:21:18;3.90;71.80
26099;DHT22;13860;52.370;6.764;2023-02-28T02:25:03;3.90;71.80
26099;DHT22;13860;52.370;6.764;2023-02-28T02:32:23;3.90;71.80
26099;DHT22;13860;52.370;6.764;2023-02-28T02:35:38;3.90;71.80
26099;DHT22;13860;52.370;6.764;2023-02-28T02:38:48;3.90;71.80
26099;DHT22;13860;52.370;6.764;2023-02-28T02:42:00;3.90;71.80
26099;DHT22;13860;52.370;6.764;2023-02-28T02:45:11;3.90;71.90
26099;DHT22;13860;52.370;6.764;2023-02-28T02:48:19;3.90;71.90
26099;DHT22;13860;52.370;6.764;2023-02-28T02:51:27;3.90;71.90
26099;DHT22;13860;52.370;6.764;2023-02-28T02:54:36;3.90;71.90
26099;DHT22;13860;52.370;6.764;2023-02-28T02:57:45;3.90;71.90
26099;DHT22;13860;52.370;6.764;2023-02-28T03:00:55;3.90;71.90
26099;DHT22;13860;52.370;6.764;2023-02-28T03:04:04;3.90;71.90
26099;DHT22;13860;52.370;6.764;2023-02-28T03:07:14;3.90;72.00
26099;DHT22;13860;52.370;6.764;2023-02-28T03:10:33;3.90;71.90
26099;DHT22;13860;52.370;6.764;2023-02-28T03:17:35;3.90;72.00
26099;DHT22;13860;52.370;6.764;2023-02-28T03:20:53;3.90;72.00
26099;DHT22;13860;52.370;6.764;2023-02-28T03:24:06;3.90;72.00
26099;DHT22;13860;52.370;6.764;2023-02-28T03:27:19;3.90;72.00
26099;DHT22;13860;52.370;6.764;2023-02-28T03:30:29;3.90;72.00
26099;DHT22;13860;52.370;6.764;2023-02-28T03:33:42;4.00;72.00
26099;DHT22;13860;52.370;6.764;2023-02-28T03:36:53;3.90;72.00
26099;DHT22;13860;52.370;6.764;2023-02-28T03:40:06;3.90;72.00
26099;DHT22;13860;52.370;6.764;2023-02-28T03:43:19;3.90;72.00
26099;DHT22;13860;52.370;6.764;2023-02-28T03:46:30;3.90;72.00
26099;DHT22;13860;52.370;6.764;2023-02-28T03:49:40;3.90;72.00
26099;DHT22;13860;52.370;6.764;2023-02-28T03:52:50;4.00;72.10
26099;DHT22;13860;52.370;6.764;2023-02-28T03:56:03;4.00;72.10
26099;DHT22;13860;52.370;6.764;2023-02-28T03:59:14;3.90;72.10
26099;DHT22;13860;52.370;6.764;2023-02-28T04:02:20;3.90;72.10
26099;DHT22;13860;52.370;6.764;2023-02-28T04:05:27;3.90;72.10
26099;DHT22;13860;52.370;6.764;2023-02-28T04:08:31;3.90;72.10
26099;DHT22;13860;52.370;6.764;2023-02-28T04:11:41;3.90;72.10
26099;DHT22;13860;52.370;6.764;2023-02-28T04:14:45;3.90;72.10
26099;DHT22;13860;52.370;6.764;2023-02-28T04:17:51;3.90;72.20
26099;DHT22;13860;52.370;6.764;2023-02-28T04:20:55;3.90;72.20
26099;DHT22;13860;52.370;6.764;2023-02-28T04:24:01;3.90;72.20
26099;DHT22;13860;52.370;6.764;2023-02-28T04:27:08;3.90;72.20
26099;DHT22;13860;52.370;6.764;2023-02-28T04:30:14;3.90;72.20
26099;DHT22;13860;52.370;6.764;2023-02-28T04:33:18;3.90;72.20
26099;DHT22;13860;52.370;6.764;2023-02-28T04:36:24;3.90;72.20
26099;DHT22;13860;52.370;6.764;2023-02-28T04:39:29;3.90;72.20
26099;DHT22;13860;52.370;6.764;2023-02-28T04:42:37;3.90;72.20
26099;DHT22;13860;52.370;6.764;2023-02-28T04:45:41;3.90;72.20
26099;DHT22;13860;52.370;6.764;2023-02-28T04:48:47;3.90;72.20
26099;DHT22;13860;52.370;6.764;2023-02-28T04:51:51;3.90;72.30
26099;DHT22;13860;52.370;6.764;2023-02-28T04:54:57;3.90;72.20
26099;DHT22;13860;52.370;6.764;2023-02-28T04:58:03;3.90;72.20
26099;DHT22;13860;52.370;6.764;2023-02-28T05:01:20;3.90;72.20
26099;DHT22;13860;52.370;6.764;2023-02-28T05:04:24;3.90;72.90
26099;DHT22;13860;52.370;6.764;2023-02-28T05:07:30;3.90;72.20
26099;DHT22;13860;52.370;6.764;2023-02-28T05:10:34;3.90;72.30
26099;DHT22;13860;52.370;6.764;2023-02-28T05:13:42;3.80;72.20
26099;DHT22;13860;52.370;6.764;2023-02-28T05:16:46;3.90;72.30
26099;DHT22;13860;52.370;6.764;2023-02-28T05:19:52;3.90;72.20
26099;DHT22;13860;52.370;6.764;2023-02-28T05:23:08;3.80;72.20
26099;DHT22;13860;52.370;6.764;2023-02-28T05:26:15;3.80;72.20
26099;DHT22;13860;52.370;6.764;2023-02-28T05:29:21;3.80;72.20
26099;DHT22;13860;52.370;6.764;2023-02-28T05:32:27;3.80;72.20
26099;DHT22;13860;52.370;6.764;2023-02-28T05:35:32;3.80;72.20
26099;DHT22;13860;52.370;6.764;2023-02-28T05:38:38;3.70;72.20
26099;DHT22;13860;52.370;6.764;2023-02-28T05:41:43;3.70;72.20
26099;DHT22;13860;52.370;6.764;2023-02-28T05:44:51;3.70;72.30
26099;DHT22;13860;52.370;6.764;2023-02-28T05:47:55;3.70;72.30
26099;DHT22;13860;52.370;6.764;2023-02-28T05:51:02;3.70;72.30
26099;DHT22;13860;52.370;6.764;2023-02-28T05:54:07;3.70;72.30
26099;DHT22;13860;52.370;6.764;2023-02-28T05:57:15;3.70;72.40
26099;DHT22;13860;52.370;6.764;2023-02-28T06:00:28;3.60;72.30
26099;DHT22;13860;52.370;6.764;2023-02-28T06:03:34;3.60;72.30
26099;DHT22;13860;52.370;6.764;2023-02-28T06:06:38;3.70;72.40
26099;DHT22;13860;52.370;6.764;2023-02-28T06:09:44;3.60;72.40
26099;DHT22;13860;52.370;6.764;2023-02-28T06:12:48;3.60;72.40
26099;DHT22;13860;52.370;6.764;2023-02-28T06:15:55;3.60;72.40
26099;DHT22;13860;52.370;6.764;2023-02-28T06:19:02;3.60;72.40
26099;DHT22;13860;52.370;6.764;2023-02-28T06:22:08;3.60;72.40
26099;DHT22;13860;52.370;6.764;2023-02-28T06:25:12;3.60;72.40
26099;DHT22;13860;52.370;6.764;2023-02-28T06:28:18;3.60;72.50
26099;DHT22;13860;52.370;6.764;2023-02-28T06:31:24;3.50;72.50
26099;DHT22;13860;52.370;6.764;2023-02-28T06:34:33;3.50;73.10
26099;DHT22;13860;52.370;6.764;2023-02-28T06:37:37;3.50;72.50
26099;DHT22;13860;52.370;6.764;2023-02-28T06:40:48;3.50;72.50
26099;DHT22;13860;52.370;6.764;2023-02-28T06:43:56;3.50;72.50
26099;DHT22;13860;52.370;6.764;2023-02-28T06:47:05;3.50;72.60
26099;DHT22;13860;52.370;6.764;2023-02-28T06:50:11;3.50;72.60
26099;DHT22;13860;52.370;6.764;2023-02-28T06:53:18;3.50;72.60
26099;DHT22;13860;52.370;6.764;2023-02-28T06:56:22;3.50;72.60
26099;DHT22;13860;52.370;6.764;2023-02-28T06:59:28;3.50;72.60
26099;DHT22;13860;52.370;6.764;2023-02-28T07:02:34;3.40;72.60
26099;DHT22;13860;52.370;6.764;2023-02-28T07:05:41;3.50;72.70
26099;DHT22;13860;52.370;6.764;2023-02-28T07:08:45;3.50;72.70
26099;DHT22;13860;52.370;6.764;2023-02-28T07:11:51;3.50;72.70
26099;DHT22;13860;52.370;6.764;2023-02-28T07:14:55;3.50;72.70
26099;DHT22;13860;52.370;6.764;2023-02-28T07:18:03;3.50;72.80
26099;DHT22;13860;52.370;6.764;2023-02-28T07:21:09;3.50;72.80
26099;DHT22;13860;52.370;6.764;2023-02-28T07:24:15;3.50;72.70
26099;DHT22;13860;52.370;6.764;2023-02-28T07:27:19;3.50;72.70
26099;DHT22;13860;52.370;6.764;2023-02-28T07:30:29;3.50;72.80
26099;DHT22;13860;52.370;6.764;2023-02-28T07:33:35;3.50;72.80
26099;DHT22;13860;52.370;6.764;2023-02-28T07:36:40;3.50;72.80
26099;DHT22;13860;52.370;6.764;2023-02-28T07:39:44;3.60;72.80
26099;DHT22;13860;52.370;6.764;2023-02-28T07:42:50;3.60;72.90
26099;DHT22;13860;52.370;6.764;2023-02-28T07:45:54;3.60;73.00
26099;DHT22;13860;52.370;6.764;2023-02-28T07:49:03;3.70;73.10
26099;DHT22;13860;52.370;6.764;2023-02-28T07:52:07;3.80;73.20
26099;DHT22;13860;52.370;6.764;2023-02-28T07:55:15;4.00;73.30
26099;DHT22;13860;52.370;6.764;2023-02-28T07:58:20;4.10;73.40
26099;DHT22;13860;52.370;6.764;2023-02-28T08:01:26;4.20;73.30
26099;DHT22;13860;52.370;6.764;2023-02-28T08:04:33;4.40;73.20
26099;DHT22;13860;52.370;6.764;2023-02-28T08:07:40;4.50;73.10
26099;DHT22;13860;52.370;6.764;2023-02-28T08:10:43;4.70;73.10
26099;DHT22;13860;52.370;6.764;2023-02-28T08:13:49;4.90;73.00
26099;DHT22;13860;52.370;6.764;2023-02-28T08:16:53;5.10;73.00
26099;DHT22;13860;52.370;6.764;2023-02-28T08:20:01;5.20;72.80
26099;DHT22;13860;52.370;6.764;2023-02-28T08:23:06;5.40;72.60
26099;DHT22;13860;52.370;6.764;2023-02-28T08:26:11;5.60;72.50
26099;DHT22;13860;52.370;6.764;2023-02-28T08:29:15;5.80;72.30
26099;DHT22;13860;52.370;6.764;2023-02-28T08:32:22;6.00;72.20
26099;DHT22;13860;52.370;6.764;2023-02-28T08:35:35;6.20;71.90
26099;DHT22;13860;52.370;6.764;2023-02-28T08:38:41;6.40;71.60
26099;DHT22;13860;52.370;6.764;2023-02-28T08:41:45;6.50;71.30
26099;DHT22;13860;52.370;6.764;2023-02-28T08:45:02;6.60;71.10
26099;DHT22;13860;52.370;6.764;2023-02-28T08:48:06;6.70;71.00
26099;DHT22;13860;52.370;6.764;2023-02-28T08:51:16;6.80;70.80
26099;DHT22;13860;52.370;6.764;2023-02-28T08:54:23;7.00;70.70
26099;DHT22;13860;52.370;6.764;2023-02-28T08:57:29;7.10;70.60
26099;DHT22;13860;52.370;6.764;2023-02-28T09:00:34;7.30;70.50
26099;DHT22;13860;52.370;6.764;2023-02-28T09:03:41;7.40;70.30
26099;DHT22;13860;52.370;6.764;2023-02-28T09:06:47;7.50;70.00
26099;DHT22;13860;52.370;6.764;2023-02-28T09:09:54;7.60;69.80
26099;DHT22;13860;52.370;6.764;2023-02-28T09:12:59;7.70;69.70
26099;DHT22;13860;52.370;6.764;2023-02-28T09:16:08;7.90;69.60
26099;DHT22;13860;52.370;6.764;2023-02-28T09:19:12;8.00;69.30
26099;DHT22;13860;52.370;6.764;2023-02-28T09:22:20;8.00;69.00
26099;DHT22;13860;52.370;6.764;2023-02-28T09:25:24;8.10;68.90
26099;DHT22;13860;52.370;6.764;2023-02-28T09:28:30;8.10;68.70
26099;DHT22;13860;52.370;6.764;2023-02-28T09:31:34;8.20;68.60
26099;DHT22;13860;52.370;6.764;2023-02-28T09:34:40;8.30;68.50
26099;DHT22;13860;52.370;6.764;2023-02-28T09:37:46;8.40;68.30
26099;DHT22;13860;52.370;6.764;2023-02-28T09:40:57;8.40;68.20
26099;DHT22;13860;52.370;6.764;2023-02-28T09:44:03;8.50;68.30
26099;DHT22;13860;52.370;6.764;2023-02-28T09:47:18;8.50;68.00
26099;DHT22;13860;52.370;6.764;2023-02-28T09:50:32;8.50;67.60
26099;DHT22;13860;52.370;6.764;2023-02-28T09:53:41;8.60;67.70
26099;DHT22;13860;52.370;6.764;2023-02-28T09:56:55;8.60;67.60
26099;DHT22;13860;52.370;6.764;2023-02-28T10:00:10;8.70;67.50
26099;DHT22;13860;52.370;6.764;2023-02-28T10:03:27;8.70;67.20
26099;DHT22;13860;52.370;6.764;2023-02-28T10:06:39;8.80;67.00
26099;DHT22;13860;52.370;6.764;2023-02-28T10:09:50;8.90;66.90
26099;DHT22;13860;52.370;6.764;2023-02-28T10:13:00;8.90;66.60
26099;DHT22;13860;52.370;6.764;2023-02-28T10:16:11;9.00;66.60
26099;DHT22;13860;52.370;6.764;2023-02-28T10:19:22;9.00;66.40
26099;DHT22;13860;52.370;6.764;2023-02-28T10:22:31;9.10;66.20
26099;DHT22;13860;52.370;6.764;2023-02-28T10:25:44;9.20;66.10
26099;DHT22;13860;52.370;6.764;2023-02-28T10:28:51;9.20;66.50
26099;DHT22;13860;52.370;6.764;2023-02-28T10:32:01;9.30;65.80
26099;DHT22;13860;52.370;6.764;2023-02-28T10:35:14;9.30;65.70
26099;DHT22;13860;52.370;6.764;2023-02-28T10:38:22;9.40;65.50
26099;DHT22;13860;52.370;6.764;2023-02-28T10:41:30;9.40;65.50
26099;DHT22;13860;52.370;6.764;2023-02-28T10:44:38;9.40;65.20
26099;DHT22;13860;52.370;6.764;2023-02-28T10:47:51;9.50;65.40
26099;DHT22;13860;52.370;6.764;2023-02-28T10:51:02;9.50;64.80
26099;DHT22;13860;52.370;6.764;2023-02-28T10:54:15;9.50;65.00
26099;DHT22;13860;52.370;6.764;2023-02-28T10:57:30;9.40;64.60
26099;DHT22;13860;52.370;6.764;2023-02-28T11:00:35;9.40;64.70
26099;DHT22;13860;52.370;6.764;2023-02-28T11:03:41;9.40;65.40
26099;DHT22;13860;52.370;6.764;2023-02-28T11:06:45;9.40;64.90
26099;DHT22;13860;52.370;6.764;2023-02-28T11:09:52;9.40;64.90
26099;DHT22;13860;52.370;6.764;2023-02-28T11:12:59;9.50;65.10
26099;DHT22;13860;52.370;6.764;2023-02-28T11:16:07;9.50;64.80
26099;DHT22;13860;52.370;6.764;2023-02-28T11:19:19;9.50;64.70
26099;DHT22;13860;52.370;6.764;2023-02-28T11:22:29;9.50;64.30
26099;DHT22;13860;52.370;6.764;2023-02-28T11:25:38;9.60;64.30
26099;DHT22;13860;52.370;6.764;2023-02-28T11:28:46;9.60;64.20
26099;DHT22;13860;52.370;6.764;2023-02-28T11:32:13;9.60;64.10
26099;DHT22;13860;52.370;6.764;2023-02-28T11:35:27;9.60;63.60
26099;DHT22;13860;52.370;6.764;2023-02-28T11:38:34;9.60;63.90
26099;DHT22;13860;52.370;6.764;2023-02-28T11:41:55;9.60;63.80
26099;DHT22;13860;52.370;6.764;2023-02-28T11:45:18;9.70;63.60
26099;DHT22;13860;52.370;6.764;2023-02-28T11:48:32;9.70;63.50
26099;DHT22;13860;52.370;6.764;2023-02-28T11:51:46;9.70;63.70
26099;DHT22;13860;52.370;6.764;2023-02-28T11:55:00;9.70;63.50
26099;DHT22;13860;52.370;6.764;2023-02-28T11:58:21;9.70;63.80
26099;DHT22;13860;52.370;6.764;2023-02-28T12:01:54;9.80;63.80
26099;DHT22;13860;52.370;6.764;2023-02-28T12:05:15;9.70;63.30
26099;DHT22;13860;52.370;6.764;2023-02-28T12:08:36;9.80;64.20
26099;DHT22;13860;52.370;6.764;2023-02-28T12:11:50;9.90;63.50
26099;DHT22;13860;52.370;6.764;2023-02-28T12:15:19;10.00;63.30
26099;DHT22;13860;52.370;6.764;2023-02-28T12:18:42;10.00;63.40
26099;DHT22;13860;52.370;6.764;2023-02-28T12:22:16;10.00;62.80
26099;DHT22;13860;52.370;6.764;2023-02-28T12:25:43;10.00;62.60
26099;DHT22;13860;52.370;6.764;2023-02-28T12:28:57;10.00;62.50
26099;DHT22;13860;52.370;6.764;2023-02-28T12:32:06;10.10;62.70
26099;DHT22;13860;52.370;6.764;2023-02-28T12:35:19;10.10;62.60
26099;DHT22;13860;52.370;6.764;2023-02-28T12:38:28;10.00;62.30
26099;DHT22;13860;52.370;6.764;2023-02-28T12:41:40;10.00;62.30
26099;DHT22;13860;52.370;6.764;2023-02-28T12:44:48;10.00;62.20
26099;DHT22;13860;52.370;6.764;2023-02-28T12:47:58;10.00;62.20
26099;DHT22;13860;52.370;6.764;2023-02-28T12:51:07;10.00;62.00
26099;DHT22;13860;52.370;6.764;2023-02-28T12:54:20;10.00;62.00
26099;DHT22;13860;52.370;6.764;2023-02-28T12:57:32;10.00;61.70
26099;DHT22;13860;52.370;6.764;2023-02-28T13:00:52;10.00;61.70
26099;DHT22;13860;52.370;6.764;2023-02-28T13:04:22;9.90;61.50
26099;DHT22;13860;52.370;6.764;2023-02-28T13:11:24;9.80;61.10
26099;DHT22;13860;52.370;6.764;2023-02-28T13:14:36;9.80;61.20
26099;DHT22;13860;52.370;6.764;2023-02-28T13:17:40;9.70;61.20
26099;DHT22;13860;52.370;6.764;2023-02-28T13:20:48;9.60;61.30
26099;DHT22;13860;52.370;6.764;2023-02-28T13:24:00;9.50;61.20
26099;DHT22;13860;52.370;6.764;2023-02-28T13:27:23;9.40;60.90
26099;DHT22;13860;52.370;6.764;2023-02-28T13:31:00;9.30;60.80
26099;DHT22;13860;52.370;6.764;2023-02-28T13:34:16;9.10;60.70
26099;DHT22;13860;52.370;6.764;2023-02-28T13:37:35;9.00;61.60
26099;DHT22;13860;52.370;6.764;2023-02-28T13:40:46;8.90;60.90
26099;DHT22;13860;52.370;6.764;2023-02-28T13:44:04;8.70;61.10
26099;DHT22;13860;52.370;6.764;2023-02-28T13:47:25;8.60;60.90
26099;DHT22;13860;52.370;6.764;2023-02-28T13:50:35;8.60;61.00
26099;DHT22;13860;52.370;6.764;2023-02-28T13:53:57;8.50;61.10
26099;DHT22;13860;52.370;6.764;2023-02-28T13:57:17;8.40;60.80
26099;DHT22;13860;52.370;6.764;2023-02-28T14:00:42;8.40;61.00
26099;DHT22;13860;52.370;6.764;2023-02-28T14:04:00;8.30;60.90
26099;DHT22;13860;52.370;6.764;2023-02-28T14:07:09;8.30;60.90
26099;DHT22;13860;52.370;6.764;2023-02-28T14:10:26;8.20;61.10
26099;DHT22;13860;52.370;6.764;2023-02-28T14:13:41;8.20;60.90
26099;DHT22;13860;52.370;6.764;2023-02-28T14:16:49;8.20;60.90
26099;DHT22;13860;52.370;6.764;2023-02-28T14:19:57;8.10;61.10
26099;DHT22;13860;52.370;6.764;2023-02-28T14:23:06;8.00;60.90
26099;DHT22;13860;52.370;6.764;2023-02-28T14:26:27;8.00;60.70
26099;DHT22;13860;52.370;6.764;2023-02-28T14:33:48;7.90;60.60
26099;DHT22;13860;52.370;6.764;2023-02-28T14:37:00;7.90;60.60
26099;DHT22;13860;52.370;6.764;2023-02-28T14:40:12;7.90;61.00
26099;DHT22;13860;52.370;6.764;2023-02-28T14:43:20;7.90;60.80
26099;DHT22;13860;52.370;6.764;2023-02-28T14:46:32;7.90;60.80
26099;DHT22;13860;52.370;6.764;2023-02-28T14:49:43;7.90;60.80
26099;DHT22;13860;52.370;6.764;2023-02-28T14:52:53;7.90;60.60
26099;DHT22;13860;52.370;6.764;2023-02-28T14:55:57;7.90;60.70
26099;DHT22;13860;52.370;6.764;2023-02-28T14:59:05;7.90;60.70
26099;DHT22;13860;52.370;6.764;2023-02-28T15:02:20;7.90;60.60
26099;DHT22;13860;52.370;6.764;2023-02-28T15:05:31;7.80;60.30
26099;DHT22;13860;52.370;6.764;2023-02-28T15:08:35;7.90;60.50
26099;DHT22;13860;52.370;6.764;2023-02-28T15:11:41;7.80;60.40
26099;DHT22;13860;52.370;6.764;2023-02-28T15:14:48;7.80;61.00
26099;DHT22;13860;52.370;6.764;2023-02-28T15:17:56;7.80;60.40
26099;DHT22;13860;52.370;6.764;2023-02-28T15:21:06;7.90;60.40
26099;DHT22;13860;52.370;6.764;2023-02-28T15:24:15;7.80;60.20
26099;DHT22;13860;52.370;6.764;2023-02-28T15:27:27;7.80;60.30
26099;DHT22;13860;52.370;6.764;2023-02-28T15:30:35;7.80;60.30
26099;DHT22;13860;52.370;6.764;2023-02-28T15:33:52;7.80;60.20
26099;DHT22;13860;52.370;6.764;2023-02-28T15:37:00;7.80;60.00
26099;DHT22;13860;52.370;6.764;2023-02-28T15:40:11;7.80;60.20
26099;DHT22;13860;52.370;6.764;2023-02-28T15:43:25;7.80;60.10
26099;DHT22;13860;52.370;6.764;2023-02-28T15:46:29;7.80;60.00
26099;DHT22;13860;52.370;6.764;2023-02-28T15:49:40;7.80;60.10
26099;DHT22;13860;52.370;6.764;2023-02-28T15:52:50;7.70;60.00
26099;DHT22;13860;52.370;6.764;2023-02-28T15:56:00;7.70;60.00
26099;DHT22;13860;52.370;6.764;2023-02-28T15:59:06;7.70;60.00
26099;DHT22;13860;52.370;6.764;2023-02-28T16:02:17;7.70;60.10
26099;DHT22;13860;52.370;6.764;2023-02-28T16:05:25;7.60;60.10
26099;DHT22;13860;52.370;6.764;2023-02-28T16:08:40;7.60;60.10
26099;DHT22;13860;52.370;6.764;2023-02-28T16:11:45;7.60;60.10
26099;DHT22;13860;52.370;6.764;2023-02-28T16:14:53;7.60;60.10
26099;DHT22;13860;52.370;6.764;2023-02-28T16:17:58;7.60;60.10
26099;DHT22;13860;52.370;6.764;2023-02-28T16:21:04;7.50;60.10
26099;DHT22;13860;52.370;6.764;2023-02-28T16:24:12;7.50;60.10
26099;DHT22;13860;52.370;6.764;2023-02-28T16:27:21;7.40;60.00
26099;DHT22;13860;52.370;6.764;2023-02-28T16:30:28;7.40;60.00
26099;DHT22;13860;52.370;6.764;2023-02-28T16:33:35;7.40;60.00
26099;DHT22;13860;52.370;6.764;2023-02-28T16:36:39;7.30;60.00
26099;DHT22;13860;52.370;6.764;2023-02-28T16:39:47;7.30;60.00
26099;DHT22;13860;52.370;6.764;2023-02-28T16:42:57;7.20;59.90
26099;DHT22;13860;52.370;6.764;2023-02-28T16:46:04;7.20;59.90
26099;DHT22;13860;52.370;6.764;2023-02-28T16:49:10;7.20;60.60
26099;DHT22;13860;52.370;6.764;2023-02-28T16:52:19;7.10;59.90
26099;DHT22;13860;52.370;6.764;2023-02-28T16:55:28;7.10;60.00
26099;DHT22;13860;52.370;6.764;2023-02-28T16:58:34;7.00;59.90
26099;DHT22;13860;52.370;6.764;2023-02-28T17:01:39;7.00;59.90
26099;DHT22;13860;52.370;6.764;2023-02-28T17:04:46;7.00;60.00
26099;DHT22;13860;52.370;6.764;2023-02-28T17:07:50;7.00;59.90
26099;DHT22;13860;52.370;6.764;2023-02-28T17:10:58;6.90;59.80
26099;DHT22;13860;52.370;6.764;2023-02-28T17:14:07;6.90;59.80
26099;DHT22;13860;52.370;6.764;2023-02-28T17:17:18;6.80;59.80
26099;DHT22;13860;52.370;6.764;2023-02-28T17:20:26;6.80;59.80
26099;DHT22;13860;52.370;6.764;2023-02-28T17:23:33;6.70;59.80
26099;DHT22;13860;52.370;6.764;2023-02-28T17:26:42;6.70;59.80
26099;DHT22;13860;52.370;6.764;2023-02-28T17:29:48;6.70;59.80
26099;DHT22;13860;52.370;6.764;2023-02-28T17:32:52;6.60;59.80
26099;DHT22;13860;52.370;6.764;2023-02-28T17:35:58;6.60;59.80
26099;DHT22;13860;52.370;6.764;2023-02-28T17:39:04;6.50;59.70
26099;DHT22;13860;52.370;6.764;2023-02-28T17:42:16;6.50;59.80
26099;DHT22;13860;52.370;6.764;2023-02-28T17:45:21;6.40;59.80
26099;DHT22;13860;52.370;6.764;2023-02-28T17:48:28;6.40;59.80
26099;DHT22;13860;52.370;6.764;2023-02-28T17:51:33;6.30;59.80
26099;DHT22;13860;52.370;6.764;2023-02-28T17:54:39;6.30;59.80
26099;DHT22;13860;52.370;6.764;2023-02-28T17:57:46;6.20;59.80
26099;DHT22;13860;52.370;6.764;2023-02-28T18:00:53;6.20;59.80
26099;DHT22;13860;52.370;6.764;2023-02-28T18:03:57;6.10;59.80
26099;DHT22;13860;52.370;6.764;2023-02-28T18:07:03;6.00;59.90
26099;DHT22;13860;52.370;6.764;2023-02-28T18:10:14;6.00;59.90
26099;DHT22;13860;52.370;6.764;2023-02-28T18:13:24;5.90;59.80
26099;DHT22;13860;52.370;6.764;2023-02-28T18:16:29;5.90;59.90
26099;DHT22;13860;52.370;6.764;2023-02-28T18:19:38;5.80;60.00
26099;DHT22;13860;52.370;6.764;2023-02-28T18:22:43;5.70;60.00
26099;DHT22;13860;52.370;6.764;2023-02-28T18:25:49;5.60;60.00
26099;DHT22;13860;52.370;6.764;2023-02-28T18:28:56;5.60;60.00
26099;DHT22;13860;52.370;6.764;2023-02-28T18:32:02;5.50;60.00
26099;DHT22;13860;52.370;6.764;2023-02-28T18:35:07;5.40;60.10
26099;DHT22;13860;52.370;6.764;2023-02-28T18:38:16;5.30;60.10
26099;DHT22;13860;52.370;6.764;2023-02-28T18:41:23;5.30;60.20
26099;DHT22;13860;52.370;6.764;2023-02-28T18:44:33;5.20;60.20
26099;DHT22;13860;52.370;6.764;2023-02-28T18:47:37;5.10;60.30
26099;DHT22;13860;52.370;6.764;2023-02-28T18:50:43;5.00;60.30
26099;DHT22;13860;52.370;6.764;2023-02-28T18:53:47;4.90;60.30
26099;DHT22;13860;52.370;6.764;2023-02-28T18:56:53;4.80;60.40
26099;DHT22;13860;52.370;6.764;2023-02-28T18:59:59;4.80;60.50
26099;DHT22;13860;52.370;6.764;2023-02-28T19:03:09;4.70;60.60
26099;DHT22;13860;52.370;6.764;2023-02-28T19:06:13;4.60;60.50
26099;DHT22;13860;52.370;6.764;2023-02-28T19:09:20;4.60;60.60
26099;DHT22;13860;52.370;6.764;2023-02-28T19:12:24;4.50;60.60
26099;DHT22;13860;52.370;6.764;2023-02-28T19:15:34;4.40;60.60
26099;DHT22;13860;52.370;6.764;2023-02-28T19:18:39;4.30;60.70
26099;DHT22;13860;52.370;6.764;2023-02-28T19:21:46;4.30;60.80
26099;DHT22;13860;52.370;6.764;2023-02-28T19:24:50;4.20;60.80
26099;DHT22;13860;52.370;6.764;2023-02-28T19:27:56;4.10;60.90
26099;DHT22;13860;52.370;6.764;2023-02-28T19:31:02;4.10;60.90
26099;DHT22;13860;52.370;6.764;2023-02-28T19:34:09;4.00;60.90
26099;DHT22;13860;52.370;6.764;2023-02-28T19:37:13;3.90;60.90
26099;DHT22;13860;52.370;6.764;2023-02-28T19:40:20;3.90;61.00
26099;DHT22;13860;52.370;6.764;2023-02-28T19:43:24;3.80;61.00
26099;DHT22;13860;52.370;6.764;2023-02-28T19:46:32;3.80;61.10
26099;DHT22;13860;52.370;6.764;2023-02-28T19:49:37;3.70;61.10
26099;DHT22;13860;52.370;6.764;2023-02-28T19:52:45;3.70;61.20
26099;DHT22;13860;52.370;6.764;2023-02-28T19:55:50;3.60;61.10
26099;DHT22;13860;52.370;6.764;2023-02-28T19:58:57;3.50;61.20
26099;DHT22;13860;52.370;6.764;2023-02-28T20:02:02;3.50;61.20
26099;DHT22;13860;52.370;6.764;2023-02-28T20:05:09;3.40;61.30
26099;DHT22;13860;52.370;6.764;2023-02-28T20:08:13;3.40;61.30
26099;DHT22;13860;52.370;6.764;2023-02-28T20:11:19;3.30;61.30
26099;DHT22;13860;52.370;6.764;2023-02-28T20:14:26;3.30;61.40
26099;DHT22;13860;52.370;6.764;2023-02-28T20:17:34;3.20;61.40
26099;DHT22;13860;52.370;6.764;2023-02-28T20:20:39;3.20;61.50
26099;DHT22;13860;52.370;6.764;2023-02-28T20:23:46;3.00;61.40
26099;DHT22;13860;52.370;6.764;2023-02-28T20:26:50;3.00;61.50